createdAt,value
2023-01-20T00:01:22.997Z,15.10
2023-01-20T00:03:50.623Z,17.77
2023-01-20T00:06:17.363Z,15.40
2023-01-20T00:08:44.043Z,13.18
2023-01-20T00:11:13.031Z,9.02
2023-01-20T00:13:39.924Z,8.63
2023-01-20T00:16:08.869Z,8.88
2023-01-20T00:18:36.289Z,8.65
2023-01-20T00:21:13.745Z,7.55
2023-01-20T00:23:41.111Z,6.85
2023-01-20T00:26:13.000Z,6.40
2023-01-20T00:28:40.252Z,6.22
2023-01-20T00:31:10.820Z,6.53
2023-01-20T00:33:37.476Z,6.60
2023-01-20T00:36:04.395Z,7.78
2023-01-20T00:38:31.059Z,6.90
2023-01-20T00:40:57.827Z,7.47
2023-01-20T00:43:24.511Z,6.13
2023-01-20T00:45:51.127Z,5.68
2023-01-20T00:48:18.006Z,5.35
2023-01-20T00:50:44.638Z,6.25
2023-01-20T00:53:11.273Z,6.32
2023-01-20T00:55:37.874Z,8.45
2023-01-20T00:58:04.648Z,5.72
2023-01-20T01:00:31.592Z,5.75
2023-01-20T01:02:58.452Z,5.78
2023-01-20T01:05:25.238Z,5.25
2023-01-20T01:07:51.924Z,5.30
2023-01-20T01:10:18.777Z,6.00
2023-01-20T01:12:45.364Z,6.03
2023-01-20T01:15:12.481Z,5.38
2023-01-20T01:17:39.499Z,9.65
2023-01-20T01:20:06.547Z,8.57
2023-01-20T01:22:33.276Z,13.27
2023-01-20T01:24:59.938Z,9.57
2023-01-20T01:27:28.412Z,8.70
2023-01-20T01:29:55.786Z,5.22
2023-01-20T01:32:23.243Z,6.72
2023-01-20T01:34:50.180Z,7.30
2023-01-20T01:37:16.783Z,6.40
2023-01-20T01:39:43.438Z,6.15
2023-01-20T01:42:12.710Z,5.15
2023-01-20T01:44:59.775Z,4.53
2023-01-20T01:47:26.513Z,4.85
2023-01-20T01:49:53.134Z,5.50
2023-01-20T01:52:21.472Z,7.22
2023-01-20T01:54:49.188Z,6.55
2023-01-20T01:57:15.920Z,8.48
2023-01-20T01:59:44.229Z,7.05
2023-01-20T02:02:10.981Z,7.22
2023-01-20T02:04:38.592Z,8.73
2023-01-20T02:07:10.201Z,7.22
2023-01-20T02:09:38.123Z,6.03
2023-01-20T02:12:09.617Z,6.70
2023-01-20T02:14:41.329Z,5.53
2023-01-20T02:17:29.801Z,6.15
2023-01-20T02:20:34.737Z,4.57
2023-01-20T02:23:43.560Z,3.90
2023-01-20T02:26:37.028Z,3.95
2023-01-20T02:29:21.065Z,3.58
2023-01-20T02:32:08.388Z,4.25
2023-01-20T02:34:45.472Z,4.07
2023-01-20T02:37:23.290Z,3.63
2023-01-20T02:40:10.185Z,3.50
2023-01-20T02:42:53.906Z,3.33
2023-01-20T02:45:20.457Z,3.03
2023-01-20T02:48:25.720Z,2.90
2023-01-20T02:51:09.248Z,3.13
2023-01-20T02:53:47.678Z,2.90
2023-01-20T02:56:16.787Z,3.00
2023-01-20T02:59:10.017Z,3.13
2023-01-20T03:01:42.240Z,3.10
2023-01-20T03:04:13.354Z,2.93
2023-01-20T03:06:44.590Z,2.77
2023-01-20T03:09:15.733Z,2.90
2023-01-20T03:11:50.137Z,3.40
2023-01-20T03:14:17.585Z,2.92
2023-01-20T03:16:48.231Z,3.30
2023-01-20T03:19:19.465Z,3.30
2023-01-20T03:21:47.136Z,3.20
2023-01-20T03:24:13.959Z,3.00
2023-01-20T03:26:40.584Z,2.60
2023-01-20T03:29:09.419Z,2.90
2023-01-20T03:31:47.212Z,7.72
2023-01-20T03:34:17.929Z,73.22
2023-01-20T03:36:45.896Z,19.05
2023-01-20T03:39:13.113Z,5.30
2023-01-20T03:41:59.763Z,5.28
2023-01-20T03:44:51.239Z,4.00
2023-01-20T03:47:26.737Z,3.53
2023-01-20T03:50:06.272Z,4.07
2023-01-20T03:55:23.328Z,12.35
2023-01-20T03:58:05.613Z,8.57
2023-01-20T04:00:37.607Z,5.10
2023-01-20T04:03:09.717Z,3.30
2023-01-20T04:05:38.632Z,2.90
2023-01-20T04:08:08.686Z,3.63
2023-01-20T04:10:38.551Z,4.30
2023-01-20T04:13:05.307Z,3.10
2023-01-20T04:15:40.086Z,5.28
2023-01-20T04:18:19.860Z,3.70
2023-01-20T04:21:01.270Z,2.67
2023-01-20T04:23:30.884Z,3.15
2023-01-20T04:28:24.152Z,3.80
2023-01-20T04:30:50.773Z,4.53
2023-01-20T04:33:17.520Z,4.43
2023-01-20T04:35:44.095Z,3.90
2023-01-20T04:38:10.718Z,4.30
2023-01-20T04:40:37.339Z,3.00
2023-01-20T04:43:04.503Z,3.22
2023-01-20T04:45:31.191Z,3.50
2023-01-20T04:47:57.869Z,3.38
2023-01-20T04:50:24.485Z,10.30
2023-01-20T04:52:55.334Z,5.95
2023-01-20T04:55:22.159Z,3.13
2023-01-20T04:57:48.711Z,3.17
2023-01-20T05:00:19.886Z,3.53
2023-01-20T05:02:47.192Z,3.20
2023-01-20T05:05:14.505Z,2.85
2023-01-20T05:07:41.300Z,3.55
2023-01-20T05:10:08.650Z,2.67
2023-01-20T05:12:36.446Z,3.75
2023-01-20T05:15:03.234Z,19.30
2023-01-20T05:17:29.919Z,121.22
2023-01-20T05:19:56.510Z,23.10
2023-01-20T05:22:23.517Z,4.65
2023-01-20T05:24:50.141Z,4.85
2023-01-20T05:27:16.801Z,4.85
2023-01-20T05:29:43.369Z,9.57
2023-01-20T05:32:10.052Z,10.10
2023-01-20T05:34:36.649Z,3.90
2023-01-20T05:37:03.336Z,4.20
2023-01-20T05:39:29.907Z,3.95
2023-01-20T05:41:56.514Z,7.03
2023-01-20T05:44:23.069Z,4.13
2023-01-20T05:46:49.802Z,3.17
2023-01-20T05:49:16.440Z,3.60
2023-01-20T05:51:43.056Z,4.38
2023-01-20T05:54:09.918Z,3.33
2023-01-20T05:56:36.573Z,3.05
2023-01-20T05:59:03.296Z,3.03
2023-01-20T06:01:29.929Z,3.70
2023-01-20T06:03:56.849Z,3.80
2023-01-20T06:06:23.577Z,5.68
2023-01-20T06:08:52.814Z,4.53
2023-01-20T06:11:19.508Z,4.72
2023-01-20T06:13:49.377Z,4.57
2023-01-20T06:16:19.594Z,4.20
2023-01-20T06:18:46.338Z,4.97
2023-01-20T06:21:12.968Z,4.93
2023-01-20T06:23:39.751Z,5.75
2023-01-20T06:26:12.590Z,5.57
2023-01-20T06:28:39.398Z,5.93
2023-01-20T06:31:14.336Z,5.32
2023-01-20T06:33:41.121Z,7.85
2023-01-20T06:36:09.194Z,6.13
2023-01-20T06:38:36.002Z,7.15
2023-01-20T06:41:08.825Z,7.10
2023-01-20T06:43:35.811Z,6.13
2023-01-20T06:46:05.340Z,7.00
2023-01-20T06:48:32.504Z,7.25
2023-01-20T06:51:07.347Z,9.15
2023-01-20T06:53:34.232Z,7.13
2023-01-20T06:56:01.904Z,9.57
2023-01-20T06:58:31.123Z,7.68
2023-01-20T07:01:03.470Z,9.38
2023-01-20T07:03:30.092Z,10.60
2023-01-20T07:06:07.388Z,10.48
2023-01-20T07:08:33.964Z,12.32
2023-01-20T07:11:00.578Z,12.30
2023-01-20T07:13:27.179Z,14.77
2023-01-20T07:15:53.792Z,12.35
2023-01-20T07:18:20.422Z,11.98
2023-01-20T07:20:47.144Z,11.60
2023-01-20T07:23:14.078Z,11.43
2023-01-20T07:25:40.788Z,11.52
2023-01-20T07:28:07.447Z,12.27
2023-01-20T07:30:34.182Z,11.60
2023-01-20T07:33:01.097Z,11.05
2023-01-20T07:35:27.927Z,11.45
2023-01-20T07:37:54.918Z,12.85
2023-01-20T07:40:21.722Z,12.98
2023-01-20T07:42:48.348Z,13.95
2023-01-20T07:45:16.274Z,12.43
2023-01-20T07:47:43.055Z,12.00
2023-01-20T07:50:10.271Z,12.70
2023-01-20T07:52:36.859Z,12.90
2023-01-20T07:55:03.573Z,14.65
2023-01-20T07:57:30.390Z,15.20
2023-01-20T07:59:57.018Z,16.15
2023-01-20T08:02:23.671Z,12.80
2023-01-20T08:04:50.319Z,17.90
2023-01-20T08:07:16.997Z,19.00
2023-01-20T08:09:43.930Z,16.77
2023-01-20T08:12:10.581Z,17.48
2023-01-20T08:14:37.929Z,17.27
2023-01-20T08:17:04.689Z,17.83
2023-01-20T08:19:31.291Z,17.17
2023-01-20T08:21:57.945Z,20.25
2023-01-20T08:24:24.589Z,18.77
2023-01-20T08:26:51.685Z,21.50
2023-01-20T08:29:18.299Z,18.17
2023-01-20T08:31:45.228Z,17.35
2023-01-20T08:34:12.326Z,20.27
2023-01-20T08:36:41.552Z,19.75
2023-01-20T08:39:14.165Z,21.30
2023-01-20T08:41:43.512Z,19.13
2023-01-20T08:44:11.472Z,17.90
2023-01-20T08:46:41.708Z,16.73
2023-01-20T08:49:14.208Z,19.27
2023-01-20T08:51:41.913Z,19.15
2023-01-20T08:54:09.237Z,17.95
2023-01-20T08:56:36.779Z,18.67
2023-01-20T08:59:04.151Z,18.25
2023-01-20T09:01:35.728Z,22.45
2023-01-20T09:04:06.312Z,21.60
2023-01-20T09:06:41.479Z,19.45
2023-01-20T09:09:08.117Z,16.05
2023-01-20T09:11:35.260Z,15.65
2023-01-20T09:14:01.952Z,16.80
2023-01-20T09:16:28.525Z,19.52
2023-01-20T09:18:55.165Z,20.02
2023-01-20T09:21:21.942Z,21.30
2023-01-20T09:23:48.775Z,20.35
2023-01-20T09:26:26.107Z,20.02
2023-01-20T09:29:09.701Z,22.42
2023-01-20T09:31:59.033Z,21.90
2023-01-20T09:34:27.675Z,23.77
2023-01-20T09:37:22.423Z,23.92
2023-01-20T09:40:08.130Z,26.58
2023-01-20T09:43:24.549Z,27.17
2023-01-20T09:46:08.929Z,26.15
2023-01-20T09:49:12.807Z,26.15
2023-01-20T09:52:34.780Z,27.13
2023-01-20T09:55:12.925Z,35.88
2023-01-20T09:57:42.494Z,31.42
2023-01-20T10:00:17.277Z,29.50
2023-01-20T10:02:50.964Z,32.00
2023-01-20T10:05:21.679Z,27.83
2023-01-20T10:08:07.091Z,34.30
2023-01-20T10:10:56.675Z,32.90
2023-01-20T10:15:57.171Z,29.20
2023-01-20T10:18:47.573Z,37.35
2023-01-20T10:21:21.848Z,33.33
2023-01-20T10:23:54.883Z,32.42
2023-01-20T10:26:34.063Z,40.25
2023-01-20T10:29:03.182Z,30.27
2023-01-20T10:31:38.679Z,26.63
2023-01-20T10:34:15.785Z,44.45
2023-01-20T10:36:46.617Z,40.20
2023-01-20T10:39:28.501Z,39.58
2023-01-20T10:42:10.096Z,49.97
2023-01-20T10:44:36.778Z,36.22
2023-01-20T10:47:17.192Z,40.95
2023-01-20T10:50:02.531Z,37.38
2023-01-20T10:52:43.864Z,32.97
2023-01-20T10:55:40.918Z,31.05
2023-01-20T10:58:30.797Z,28.98
2023-01-20T11:01:02.690Z,33.63
2023-01-20T11:03:35.376Z,39.00
2023-01-20T11:06:04.104Z,43.38
2023-01-20T11:08:30.853Z,32.73
2023-01-20T11:11:01.092Z,32.40
2023-01-20T11:13:27.744Z,39.38
2023-01-20T11:15:59.019Z,26.88
2023-01-20T11:18:30.020Z,28.80
2023-01-20T11:21:04.933Z,29.65
2023-01-20T11:23:34.543Z,27.27
2023-01-20T11:26:22.650Z,43.72
2023-01-20T11:29:24.136Z,26.52
2023-01-20T11:31:54.246Z,29.00
2023-01-20T11:34:32.784Z,29.08
2023-01-20T11:37:05.392Z,34.05
2023-01-20T11:39:33.554Z,27.80
2023-01-20T11:42:21.460Z,31.30
2023-01-20T11:44:50.517Z,30.17
2023-01-20T11:47:25.066Z,30.67
2023-01-20T11:50:17.768Z,30.92
2023-01-20T11:52:47.336Z,29.30
2023-01-20T11:55:25.777Z,30.10
2023-01-20T11:57:53.823Z,32.05
2023-01-20T12:00:27.077Z,32.53
2023-01-20T12:03:38.201Z,32.38
2023-01-20T12:06:12.987Z,37.47
2023-01-20T12:08:57.588Z,39.97
2023-01-20T12:11:32.371Z,38.65
2023-01-20T12:14:20.872Z,36.88
2023-01-20T12:17:32.460Z,34.85
2023-01-20T12:20:22.573Z,38.53
2023-01-20T12:23:14.282Z,33.03
2023-01-20T12:25:55.376Z,33.92
2023-01-20T12:28:43.131Z,35.42
2023-01-20T12:31:12.174Z,31.77
2023-01-20T12:33:41.204Z,28.45
2023-01-20T12:36:32.097Z,29.75
2023-01-20T12:39:18.689Z,27.15
2023-01-20T12:42:09.539Z,25.67
2023-01-20T12:44:55.195Z,24.70
2023-01-20T12:47:29.626Z,24.90
2023-01-20T12:50:27.682Z,25.50
2023-01-20T12:53:26.489Z,23.88
2023-01-20T12:56:17.646Z,22.45
2023-01-20T12:59:17.300Z,21.92
2023-01-20T13:04:37.109Z,22.10
2023-01-20T13:07:09.136Z,25.15
2023-01-20T13:09:59.357Z,22.85
2023-01-20T13:12:29.014Z,21.70
2023-01-20T13:18:02.892Z,22.77
2023-01-20T13:20:31.085Z,22.30
2023-01-20T13:23:02.983Z,21.63
2023-01-20T13:25:30.452Z,20.58
2023-01-20T13:27:57.486Z,20.25
2023-01-20T13:30:44.409Z,20.27
2023-01-20T13:33:34.420Z,20.45
2023-01-20T13:36:13.773Z,20.73
2023-01-20T13:38:40.464Z,19.67
2023-01-20T13:41:07.364Z,18.08
2023-01-20T13:43:47.027Z,20.02
2023-01-20T13:49:13.256Z,19.85
2023-01-20T13:51:43.559Z,20.73
2023-01-20T13:54:25.259Z,20.23
2023-01-20T13:56:52.527Z,20.10
2023-01-20T13:59:19.119Z,20.17
2023-01-20T14:01:45.813Z,20.10
2023-01-20T14:04:20.322Z,19.63
2023-01-20T14:06:48.893Z,20.15
2023-01-20T14:09:24.573Z,20.13
2023-01-20T14:11:53.829Z,19.98
2023-01-20T14:14:23.023Z,19.73
2023-01-20T14:16:49.864Z,20.95
2023-01-20T14:19:27.482Z,20.95
2023-01-20T14:21:56.504Z,20.98
2023-01-20T14:24:45.132Z,21.70
2023-01-20T14:27:22.123Z,18.90
2023-01-20T14:29:53.262Z,20.45
2023-01-20T14:32:34.736Z,20.13
2023-01-20T14:35:04.215Z,18.20
2023-01-20T14:37:32.326Z,20.58
2023-01-20T14:40:25.149Z,19.27
2023-01-20T14:42:56.634Z,19.60
2023-01-20T14:45:24.453Z,20.52
2023-01-20T14:47:51.544Z,20.80
2023-01-20T14:50:19.695Z,20.17
2023-01-20T14:52:46.653Z,20.73
2023-01-20T14:55:35.437Z,20.58
2023-01-20T14:58:17.931Z,19.38
2023-01-20T15:00:46.687Z,20.00
2023-01-20T15:03:28.666Z,21.90
2023-01-20T15:05:58.391Z,17.95
2023-01-20T15:11:21.654Z,22.05
2023-01-20T15:14:00.764Z,21.00
2023-01-20T15:16:41.513Z,21.88
2023-01-20T15:19:32.178Z,22.23
2023-01-20T15:22:18.272Z,23.10
2023-01-20T15:24:47.312Z,24.00
2023-01-20T15:27:33.998Z,24.48
2023-01-20T15:30:20.060Z,22.25
2023-01-20T15:32:48.479Z,21.17
2023-01-20T15:35:17.291Z,23.02
2023-01-20T15:37:44.521Z,25.07
2023-01-20T15:40:23.116Z,22.67
2023-01-20T15:42:51.000Z,22.25
2023-01-20T15:45:18.567Z,23.17
2023-01-20T15:47:46.847Z,22.88
2023-01-20T15:50:21.962Z,24.35
2023-01-20T15:52:49.093Z,27.85
2023-01-20T15:55:17.815Z,25.35
2023-01-20T15:57:48.271Z,29.93
2023-01-20T16:00:24.308Z,32.25
2023-01-20T16:02:51.560Z,31.20
2023-01-20T16:05:18.385Z,31.63
2023-01-20T16:07:47.405Z,31.33
2023-01-20T16:10:17.194Z,32.67
2023-01-20T16:12:44.750Z,33.70
2023-01-20T16:15:16.596Z,32.88
2023-01-20T16:17:43.920Z,30.30
2023-01-20T16:20:18.298Z,31.55
2023-01-20T16:22:45.136Z,31.15
2023-01-20T16:25:11.878Z,36.05
2023-01-20T16:27:38.477Z,33.13
2023-01-20T16:30:05.679Z,33.13
2023-01-20T16:32:32.260Z,32.90
2023-01-20T16:35:00.006Z,29.35
2023-01-20T16:37:26.585Z,31.75
2023-01-20T16:39:53.261Z,32.38
2023-01-20T16:42:19.949Z,32.70
2023-01-20T16:44:46.570Z,34.38
2023-01-20T16:47:13.261Z,32.75
2023-01-20T16:49:39.976Z,32.17
2023-01-20T16:52:06.668Z,34.42
2023-01-20T16:54:33.389Z,33.70
2023-01-20T16:57:00.120Z,32.83
2023-01-20T16:59:26.732Z,34.80
2023-01-20T17:01:53.432Z,35.40
2023-01-20T17:04:20.243Z,34.15
2023-01-20T17:06:46.873Z,33.97
2023-01-20T17:09:14.183Z,34.00
2023-01-20T17:11:40.869Z,34.00
2023-01-20T17:14:10.108Z,34.72
2023-01-20T17:16:37.433Z,34.65
2023-01-20T17:19:05.189Z,36.10
2023-01-20T17:21:36.750Z,35.03
2023-01-20T17:24:05.177Z,36.47
2023-01-20T17:26:32.538Z,34.80
2023-01-20T17:29:04.967Z,37.03
2023-01-20T17:31:34.512Z,36.20
2023-01-20T17:34:01.309Z,36.25
2023-01-20T17:36:29.613Z,36.28
2023-01-20T17:38:57.466Z,37.60
2023-01-20T17:41:24.111Z,38.72
2023-01-20T17:43:50.707Z,38.10
2023-01-20T17:46:22.457Z,38.92
2023-01-20T17:48:49.958Z,36.60
2023-01-20T17:51:20.325Z,33.60
2023-01-20T17:53:47.636Z,38.72
2023-01-20T17:56:15.793Z,35.10
2023-01-20T17:58:44.199Z,35.28
2023-01-20T18:01:19.394Z,37.83
2023-01-20T18:03:47.792Z,35.28
2023-01-20T18:06:16.550Z,37.22
2023-01-20T18:08:44.233Z,37.40
2023-01-20T18:11:15.108Z,36.40
2023-01-20T18:13:44.724Z,37.28
2023-01-20T18:16:12.837Z,38.17
2023-01-20T18:18:40.770Z,38.85
2023-01-20T18:21:16.298Z,36.95
2023-01-20T18:23:43.990Z,39.80
2023-01-20T18:26:13.846Z,38.58
2023-01-20T18:28:41.363Z,39.00
2023-01-20T18:31:13.996Z,36.13
2023-01-20T18:33:44.514Z,36.47
2023-01-20T18:36:26.535Z,36.42
2023-01-20T18:38:55.247Z,33.63
2023-01-20T18:41:22.819Z,35.27
2023-01-20T18:43:49.779Z,36.83
2023-01-20T18:46:17.176Z,36.92
2023-01-20T18:48:45.904Z,36.20
2023-01-20T18:51:17.069Z,38.70
2023-01-20T18:53:45.362Z,36.42
2023-01-20T18:56:14.887Z,38.20
2023-01-20T18:58:46.927Z,37.35
2023-01-20T19:01:16.789Z,37.45
2023-01-20T19:03:44.691Z,38.28
2023-01-20T19:06:15.046Z,40.97
2023-01-20T19:08:43.279Z,38.45
2023-01-20T19:11:15.528Z,39.17
2023-01-20T19:13:43.523Z,41.67
2023-01-20T19:16:12.782Z,44.08
2023-01-20T19:18:45.381Z,47.63
2023-01-20T19:21:17.280Z,46.15
2023-01-20T19:23:47.653Z,45.33
2023-01-20T19:26:15.160Z,43.15
2023-01-20T19:28:41.771Z,41.30
2023-01-20T19:31:11.188Z,37.03
2023-01-20T19:33:37.945Z,40.97
2023-01-20T19:36:10.904Z,36.25
2023-01-20T19:38:38.039Z,34.95
2023-01-20T19:41:10.051Z,35.30
2023-01-20T19:43:37.635Z,36.22
2023-01-20T19:46:18.604Z,35.38
2023-01-20T19:48:45.874Z,33.40
2023-01-20T19:51:15.109Z,33.53
2023-01-20T19:53:43.305Z,34.63
2023-01-20T19:56:18.544Z,29.85
2023-01-20T19:58:46.861Z,32.88
2023-01-20T20:01:18.349Z,32.70
2023-01-20T20:03:45.653Z,35.22
2023-01-20T20:06:24.487Z,46.03
2023-01-20T20:08:51.932Z,48.95
2023-01-20T20:11:18.791Z,43.63
2023-01-20T20:13:45.510Z,43.78
2023-01-20T20:16:12.142Z,30.30
2023-01-20T20:18:38.886Z,30.05
2023-01-20T20:21:06.558Z,25.50
2023-01-20T20:23:33.114Z,30.60
2023-01-20T20:25:59.803Z,31.10
2023-01-20T20:28:28.044Z,27.15
2023-01-20T20:30:55.541Z,19.75
2023-01-20T20:33:23.857Z,18.23
2023-01-20T20:35:51.634Z,15.65
2023-01-20T20:38:18.662Z,16.13
2023-01-20T20:40:45.431Z,15.73
2023-01-20T20:43:12.176Z,13.90
2023-01-20T20:45:38.794Z,14.57
2023-01-20T20:48:05.776Z,14.15
2023-01-20T20:50:32.515Z,16.52
2023-01-20T20:52:59.157Z,15.63
2023-01-20T20:55:26.173Z,15.02
2023-01-20T20:57:52.895Z,15.02
2023-01-20T21:00:23.397Z,15.55
2023-01-20T21:02:50.300Z,14.90
2023-01-20T21:05:18.927Z,15.43
2023-01-20T21:07:45.828Z,15.20
2023-01-20T21:10:15.581Z,15.93
2023-01-20T21:12:43.627Z,14.82
2023-01-20T21:15:11.375Z,14.88
2023-01-20T21:17:38.663Z,16.55
2023-01-20T21:20:06.084Z,14.38
2023-01-20T21:22:33.731Z,15.50
2023-01-20T21:25:00.563Z,14.93
2023-01-20T21:27:27.314Z,14.43
2023-01-20T21:29:53.933Z,14.23
2023-01-20T21:32:20.550Z,11.80
2023-01-20T21:34:47.127Z,14.43
2023-01-20T21:37:13.705Z,13.45
2023-01-20T21:39:40.328Z,12.90
2023-01-20T21:42:09.041Z,13.98
2023-01-20T21:44:36.459Z,14.40
2023-01-20T21:47:05.884Z,13.88
2023-01-20T21:49:51.233Z,12.57
2023-01-20T21:52:40.875Z,13.05
2023-01-20T21:57:46.840Z,16.83
2023-01-20T22:00:15.381Z,19.58
2023-01-20T22:02:44.635Z,19.38
2023-01-20T22:05:12.318Z,25.83
2023-01-20T22:07:39.181Z,24.70
2023-01-20T22:10:07.694Z,26.48
2023-01-20T22:12:35.524Z,27.23
2023-01-20T22:15:03.417Z,26.92
2023-01-20T22:17:30.706Z,32.25
2023-01-20T22:19:57.403Z,33.33
2023-01-20T22:22:24.030Z,29.20
2023-01-20T22:24:50.762Z,33.78
2023-01-20T22:27:17.485Z,35.83
2023-01-20T22:29:44.092Z,32.22
2023-01-20T22:32:10.773Z,37.15
2023-01-20T22:34:37.407Z,33.55
2023-01-20T22:37:04.105Z,35.05
2023-01-20T22:39:30.884Z,33.60
2023-01-20T22:41:57.547Z,34.03
2023-01-20T22:44:24.298Z,35.22
2023-01-20T22:46:50.910Z,35.92
2023-01-20T22:49:17.552Z,30.42
2023-01-20T22:51:44.283Z,33.13
2023-01-20T22:54:11.010Z,32.50
2023-01-20T22:56:39.056Z,31.17
2023-01-20T22:59:06.151Z,28.95
2023-01-20T23:01:34.727Z,33.45
2023-01-20T23:04:04.525Z,31.90
2023-01-20T23:06:33.644Z,31.85
2023-01-20T23:09:02.486Z,29.35
2023-01-20T23:11:29.213Z,29.60
2023-01-20T23:13:55.875Z,28.42
2023-01-20T23:16:23.118Z,29.67
2023-01-20T23:18:51.258Z,30.48
2023-01-20T23:21:19.087Z,29.60
2023-01-20T23:23:45.779Z,29.70
2023-01-20T23:26:16.061Z,29.02
2023-01-20T23:28:43.698Z,29.23
2023-01-20T23:31:12.924Z,27.58
2023-01-20T23:33:43.245Z,27.65
2023-01-20T23:36:15.062Z,27.05
2023-01-20T23:38:42.877Z,26.42
2023-01-20T23:41:10.334Z,26.55
2023-01-20T23:43:36.964Z,27.48
2023-01-20T23:46:05.551Z,28.27
2023-01-20T23:48:33.130Z,27.10
2023-01-20T23:51:00.306Z,25.35
2023-01-20T23:53:28.964Z,27.48
2023-01-20T23:56:03.777Z,27.63
2023-01-20T23:58:30.737Z,24.67
